Time;durP1;ratioP1;P1;durP2;ratioP2;P2;SDS_P1;SDS_P2;PMS_P1;PMS_P2;Temp;Humidity;BMP_temperature;BMP_pressure;BME280_temperature;BME280_humidity;BME280_pressure;Samples;Min_cycle;Max_cycle;Signal;HPM_P1;HPM_P2
2023/03/14 00:00:20;;;;;;;14.80;10.90;;;;;;;-0.57;60.64;97238.90;109814;1251;69866;-67
2023/03/14 00:03:09;;;;;;;11.80;8.70;;;;;;;-0.62;63.24;97240.60;109852;1244;58959;-67
2023/03/14 00:05:39;;;;;;;12.50;8.60;;;;;;;-0.66;62.74;97239.02;109925;1244;58919;-67
2023/03/14 00:08:08;;;;;;;15.10;9.70;;;;;;;-0.71;65.17;97238.98;110050;1244;70349;-67
2023/03/14 00:10:38;;;;;;;13.40;8.60;;;;;;;-0.73;65.51;97234.63;109965;1244;68361;-67
2023/03/14 00:13:07;;;;;;;;;;;;;;;-0.75;65.12;97233.46;109899;1246;68626;-67
2023/03/14 00:15:37;;;;;;;10.30;7.10;;;;;;;-0.76;64.29;97227.16;109856;1244;58944;-67
2023/03/14 00:18:06;;;;;;;12.30;8.40;;;;;;;-0.76;65.02;97226.14;109990;1244;58894;-67
2023/03/14 00:20:36;;;;;;;9.90;7.20;;;;;;;-0.77;66.48;97221.89;109990;1244;70986;-67
2023/03/14 00:23:05;;;;;;;9.10;6.60;;;;;;;-0.78;65.12;97217.48;109849;1244;69440;-67
2023/03/14 00:25:35;;;;;;;9.10;6.20;;;;;;;-0.81;60.23;97218.75;109894;1250;69823;-67
2023/03/14 00:28:05;;;;;;;;;;;;;;;-0.81;64.21;97216.20;109986;1244;58898;-67
2023/03/14 00:30:37;;;;;;;7.30;6.30;;;;;;;-0.84;63.43;97213.91;109831;1244;58877;-67
2023/03/14 00:33:07;;;;;;;9.90;7.10;;;;;;;-0.88;59.01;97205.30;109906;1243;70429;-67
2023/03/14 00:35:37;;;;;;;10.10;7.40;;;;;;;-0.88;57.67;97202.90;109915;1244;69554;-66
2023/03/14 00:38:07;;;;;;;10.00;6.90;;;;;;;-0.86;64.87;97198.21;109931;1244;69297;-67
2023/03/14 00:40:39;;;;;;;8.80;7.10;;;;;;;-0.85;67.61;97200.23;109984;1244;58952;-67
2023/03/14 00:43:08;;;;;;;9.50;6.70;;;;;;;-0.87;66.26;97199.78;109860;1245;58923;-67
2023/03/14 00:45:39;;;;;;;10.80;7.10;;;;;;;-0.89;66.32;97195.92;110035;1244;70596;-67
2023/03/14 00:48:10;;;;;;;9.20;7.10;;;;;;;-0.87;66.53;97196.56;109807;1244;69519;-67
2023/03/14 00:50:41;;;;;;;7.20;6.20;;;;;;;-0.87;65.02;97192.09;110037;1243;68320;-67
2023/03/14 00:53:12;;;;;;;8.00;5.60;;;;;;;-0.86;63.15;97190.17;109908;1242;58906;-67
2023/03/14 00:55:42;;;;;;;;;;;;;;;-0.87;60.01;97187.98;109895;1244;58850;-67
2023/03/14 00:58:14;;;;;;;5.90;4.60;;;;;;;-0.86;58.82;97185.21;110033;1243;71195;-67
2023/03/14 01:00:45;;;;;;;6.80;5.40;;;;;;;-0.84;59.31;97181.57;109812;1243;69756;-67
2023/03/14 01:03:15;;;;;;;8.30;6.90;;;;;;;-0.83;62.33;97180.85;109775;1243;68575;-67
2023/03/14 01:05:44;;;;;;;7.60;6.20;;;;;;;-0.84;63.39;97181.58;109884;1244;58957;-67
2023/03/14 01:08:14;;;;;;;7.30;6.20;;;;;;;-0.86;63.87;97183.35;109823;1243;58895;-67
2023/03/14 01:10:45;;;;;;;6.30;4.50;;;;;;;-0.89;64.15;97181.21;109892;1244;69615;-67
2023/03/14 01:13:16;;;;;;;6.10;5.10;;;;;;;-0.91;63.55;97181.44;109944;1244;69296;-67
2023/03/14 01:15:47;;;;;;;8.00;5.30;;;;;;;-0.92;60.17;97172.57;109895;1244;68396;-67
2023/03/14 01:18:18;;;;;;;;;;;;;;;-0.89;57.97;97168.20;109830;1244;58884;-67
2023/03/14 01:20:49;;;;;;;5.30;4.20;;;;;;;-0.84;57.49;97161.72;109965;1244;58883;-66
2023/03/14 01:23:20;;;;;;;8.10;5.10;;;;;;;-0.81;59.68;97155.80;110043;1244;69822;-67
2023/03/14 01:25:51;;;;;;;7.40;5.10;;;;;;;-0.80;60.29;97150.61;110105;1244;68579;-67
2023/03/14 01:28:22;;;;;;;7.50;5.80;;;;;;;-0.80;61.32;97144.80;109958;1243;68519;-67
2023/03/14 01:30:52;;;;;;;11.60;8.20;;;;;;;-0.83;63.60;97139.09;109934;1244;58907;-67
2023/03/14 01:33:24;;;;;;;8.50;6.60;;;;;;;-0.87;65.79;97134.61;110005;1243;58881;-67
2023/03/14 01:35:55;;;;;;;7.70;5.40;;;;;;;-0.90;64.90;97132.81;109939;1244;70570;-67
2023/03/14 01:38:33;;;;;;;9.20;6.30;;;;;;;-0.91;65.33;97130.79;110028;1244;69268;-68
2023/03/14 01:41:11;;;;;;;7.40;5.80;;;;;;;-0.92;65.43;97124.67;109861;1245;69280;-68
2023/03/14 01:43:42;;;;;;;6.30;5.50;;;;;;;-0.91;65.11;97122.43;110064;1244;58913;-68
2023/03/14 01:46:16;;;;;;;11.70;6.50;;;;;;;-0.91;62.79;97113.69;109758;1247;58940;-67
2023/03/14 01:49:07;;;;;;;8.50;5.80;;;;;;;-0.89;61.82;97107.45;109949;1244;70633;-68
2023/03/14 01:51:41;;;;;;;12.30;7.80;;;;;;;-0.85;61.96;97109.58;109881;1246;69733;-67
2023/03/14 01:54:27;;;;;;;12.30;7.40;;;;;;;-0.83;62.77;97105.23;111101;1243;69117;-68
2023/03/14 01:57:30;;;;;;;10.50;8.20;;;;;;;-0.82;61.90;97104.67;111150;1243;58954;-67
2023/03/14 02:00:14;;;;;;;12.90;8.70;;;;;;;-0.78;60.66;97100.77;109980;1245;58948;-67
2023/03/14 02:02:50;;;;;;;14.10;9.50;;;;;;;-0.72;59.90;97094.60;109992;1245;70137;-67
2023/03/14 02:05:26;;;;;;;11.30;7.90;;;;;;;-0.68;60.35;97094.47;109947;1245;68506;-68
2023/03/14 02:08:07;;;;;;;11.70;7.50;;;;;;;-0.66;63.49;97097.48;110129;1244;68602;-68
2023/03/14 02:10:48;;;;;;;8.90;6.30;;;;;;;-0.66;68.08;97099.84;109999;1244;58935;-68
2023/03/14 02:13:22;;;;;;;11.40;7.90;;;;;;;-0.66;67.94;97099.18;110036;1244;58921;-68
2023/03/14 02:16:00;;;;;;;9.30;6.60;;;;;;;-0.67;70.02;97098.54;110049;1244;70586;-68
2023/03/14 02:18:54;;;;;;;11.40;7.40;;;;;;;-0.70;70.46;97098.95;110015;1244;69429;-67
2023/03/14 02:22:07;;;;;;;11.20;8.10;;;;;;;-0.73;67.31;97091.53;109997;1245;69290;-67
2023/03/14 02:25:08;;;;;;;11.40;7.50;;;;;;;-0.74;64.86;97095.17;109951;1244;58889;-68
2023/03/14 02:27:39;;;;;;;10.10;7.50;;;;;;;-0.73;67.01;97096.37;110036;1244;58859;-68
2023/03/14 02:30:13;;;;;;;11.50;8.60;;;;;;;-0.75;68.40;97095.36;109847;1246;70593;-68
2023/03/14 02:32:53;;;;;;;9.40;7.00;;;;;;;-0.76;69.36;97094.53;109900;1244;69078;-68
2023/03/14 02:35:27;;;;;;;9.50;6.60;;;;;;;-0.78;71.15;97089.48;109852;1244;68564;-68
2023/03/14 02:38:22;;;;;;;11.00;7.70;;;;;;;-0.80;69.59;97085.95;109845;1244;58939;-68
2023/03/14 02:40:51;;;;;;;8.60;6.60;;;;;;;-0.82;71.22;97081.92;109953;1244;58881;-68
2023/03/14 02:43:23;;;;;;;8.70;6.00;;;;;;;-0.84;69.46;97081.79;109824;1243;69112;-68
2023/03/14 02:46:00;;;;;;;10.40;6.60;;;;;;;-0.85;70.97;97081.31;109970;1244;69577;-68
2023/03/14 02:48:39;;;;;;;8.30;6.70;;;;;;;-0.86;72.08;97083.58;109843;1244;68013;-68
2023/03/14 02:51:11;;;;;;;;;;;;;;;-0.85;72.06;97084.55;109809;1245;58857;-68
2023/03/14 02:53:43;;;;;;;9.60;6.70;;;;;;;-0.85;71.50;97087.64;109759;1244;58946;-67
2023/03/14 02:56:13;;;;;;;9.40;6.40;;;;;;;-0.85;71.35;97090.06;109944;1243;69841;-67
2023/03/14 02:58:44;;;;;;;7.60;5.70;;;;;;;-0.87;70.64;97086.52;109893;1243;69914;-67
2023/03/14 03:01:35;;;;;;;8.10;5.70;;;;;;;-0.89;68.53;97085.73;109820;1244;69551;-67
2023/03/14 03:04:07;;;;;;;11.60;7.60;;;;;;;-0.89;71.11;97084.19;109819;1246;58899;-67
2023/03/14 03:06:38;;;;;;;10.90;7.90;;;;;;;-0.93;67.63;97083.63;109895;1243;58858;-66
2023/03/14 03:09:09;;;;;;;11.10;7.90;;;;;;;-0.97;67.16;97079.85;109871;1245;69540;-68
2023/03/14 03:11:39;;;;;;;10.30;8.10;;;;;;;-1.01;66.64;97079.64;109994;1244;67939;-68
2023/03/14 03:14:11;;;;;;;10.00;6.20;;;;;;;-1.06;67.14;97079.59;109756;1243;69254;-67
2023/03/14 03:16:41;;;;;;;10.50;7.80;;;;;;;-1.09;71.21;97080.20;109971;1245;58953;-68
2023/03/14 03:19:10;;;;;;;13.00;7.10;;;;;;;-1.13;72.20;97077.42;109854;1245;58881;-68
2023/03/14 03:21:40;;;;;;;13.70;10.20;;;;;;;-1.18;74.48;97080.31;109866;1244;70731;-68
2023/03/14 03:24:10;;;;;;;17.00;12.40;;;;;;;-1.24;73.38;97080.16;109791;1243;69273;-68
2023/03/14 03:26:40;;;;;;;16.60;11.00;;;;;;;-1.35;72.54;97076.92;109872;1244;69079;-68
2023/03/14 03:29:11;;;;;;;16.80;11.60;;;;;;;-1.44;73.53;97078.91;109813;1248;59002;-68
2023/03/14 03:31:41;;;;;;;;;;;;;;;-1.51;76.22;97076.73;109742;1248;58891;-68
2023/03/14 03:34:12;;;;;;;17.70;12.00;;;;;;;-1.59;75.50;97073.88;109917;1244;71267;-68
2023/03/14 03:36:42;;;;;;;16.20;10.50;;;;;;;-1.64;78.23;97073.71;110026;1244;69822;-68
2023/03/14 03:39:13;;;;;;;14.00;9.20;;;;;;;-1.68;77.91;97072.44;110138;1244;68539;-68
2023/03/14 03:41:43;;;;;;;11.40;8.40;;;;;;;-1.72;76.35;97065.91;109717;1245;58888;-68
2023/03/14 03:44:15;;;;;;;12.50;8.70;;;;;;;-1.77;78.59;97065.38;109924;1244;58936;-68
2023/03/14 03:46:45;;;;;;;11.60;7.80;;;;;;;-1.81;78.07;97065.82;109727;1244;69622;-68
2023/03/14 03:49:15;;;;;;;11.60;7.50;;;;;;;-1.83;75.14;97062.30;109946;1243;69597;-68
2023/03/14 03:51:46;;;;;;;;;;;;;;;-1.84;74.08;97055.83;109791;1246;68911;-68
2023/03/14 03:54:16;;;;;;;8.10;5.10;;;;;;;-1.84;72.65;97052.94;109806;1244;58905;-68
2023/03/14 03:56:45;;;;;;;6.40;4.90;;;;;;;-1.82;72.18;97047.92;109819;1244;58877;-68
2023/03/14 03:59:15;;;;;;;;;;;;;;;-1.81;70.44;97046.50;109822;1244;70653;-68
2023/03/14 04:01:47;;;;;;;12.60;8.60;;;;;;;-1.79;71.37;97049.71;109844;1245;69232;-67
2023/03/14 04:04:18;;;;;;;10.50;7.00;;;;;;;-1.85;71.90;97053.83;109741;1245;68359;-67
2023/03/14 04:06:51;;;;;;;8.60;6.60;;;;;;;-1.92;72.49;97047.00;109855;1248;58960;-68
2023/03/14 04:09:21;;;;;;;11.50;7.90;;;;;;;-1.95;72.80;97041.98;109982;1244;58831;-68
2023/03/14 04:12:08;;;;;;;12.80;9.00;;;;;;;-1.97;75.90;97041.70;109988;1243;70495;-67
2023/03/14 04:14:56;;;;;;;11.80;8.20;;;;;;;-1.99;78.83;97040.38;110102;1244;69103;-68
2023/03/14 04:17:25;;;;;;;10.90;9.10;;;;;;;-2.01;79.91;97038.08;110074;1244;69242;-68
2023/03/14 04:19:55;;;;;;;11.30;8.10;;;;;;;-2.05;80.52;97034.06;109862;1243;58916;-68
2023/03/14 04:22:32;;;;;;;10.70;7.00;;;;;;;-2.08;79.48;97034.48;109922;1245;58874;-68
2023/03/14 04:25:03;;;;;;;11.70;8.80;;;;;;;-2.10;80.14;97033.70;109897;1245;69673;-67
2023/03/14 04:27:36;;;;;;;11.80;8.50;;;;;;;-2.13;80.00;97032.93;109958;1244;69607;-67
2023/03/14 04:30:11;;;;;;;13.00;9.30;;;;;;;-2.18;80.42;97031.20;109893;1244;69243;-68
2023/03/14 04:32:48;;;;;;;35.50;18.90;;;;;;;-2.21;80.93;97033.48;109890;1244;58943;-68
2023/03/14 04:35:19;;;;;;;36.60;21.20;;;;;;;-2.21;80.33;97041.70;109894;1243;58887;-68
2023/03/14 04:37:49;;;;;;;;;;;;;;;-2.23;79.32;97041.40;110092;1244;70585;-68
2023/03/14 04:40:18;;;;;;;20.70;11.50;;;;;;;-2.24;79.25;97039.57;110034;1244;69312;-68
2023/03/14 04:42:50;;;;;;;14.40;8.90;;;;;;;-2.23;78.35;97041.56;109947;1244;68348;-68
2023/03/14 04:45:20;;;;;;;13.60;8.20;;;;;;;-2.22;77.73;97042.73;110028;1244;58969;-68
2023/03/14 04:47:49;;;;;;;17.10;10.70;;;;;;;-2.21;77.54;97042.52;110021;1244;58924;-68
2023/03/14 04:50:20;;;;;;;;;;;;;;;-2.21;79.03;97041.02;110123;1244;70610;-68
2023/03/14 04:52:50;;;;;;;15.20;9.60;;;;;;;-2.21;81.18;97038.80;109987;1244;69858;-68
2023/03/14 04:55:19;;;;;;;19.30;10.30;;;;;;;-2.23;76.74;97036.96;109967;1244;68734;-70
2023/03/14 04:57:52;;;;;;;18.00;10.20;;;;;;;-2.24;72.97;97030.34;109959;1245;58870;-68
2023/03/14 05:00:21;;;;;;;16.70;10.90;;;;;;;-2.23;73.71;97023.48;109917;1244;58908;-68
2023/03/14 05:03:27;;;;;;;12.40;8.40;;;;;;;-2.22;72.64;97019.86;110004;1245;70869;-68
2023/03/14 05:06:26;;;;;;;12.30;9.00;;;;;;;-2.16;76.37;97019.52;109659;1244;69511;-68
2023/03/14 05:08:54;;;;;;;14.70;9.40;;;;;;;-2.05;78.31;97014.27;109925;1244;69129;-68
2023/03/14 05:11:38;;;;;;;11.80;7.90;;;;;;;-1.91;80.38;97018.48;110054;1244;58944;-68
2023/03/14 05:14:17;;;;;;;10.40;6.80;;;;;;;-1.84;79.26;97015.69;109982;1244;58891;-68
2023/03/14 05:17:14;;;;;;;12.70;8.10;;;;;;;-1.75;79.69;97013.86;110114;1243;69986;-69
2023/03/14 05:20:09;;;;;;;18.30;11.70;;;;;;;-1.55;80.28;97004.73;110112;1243;69511;-68
2023/03/14 05:23:14;;;;;;;20.50;12.90;;;;;;;-1.40;78.96;97001.52;109959;1244;68190;-68
2023/03/14 05:25:58;;;;;;;22.50;14.60;;;;;;;-1.28;78.92;97013.10;109921;1248;58943;-69
2023/03/14 05:28:48;;;;;;;16.40;9.90;;;;;;;-1.16;77.62;97009.82;110141;1244;58849;-68
2023/03/14 05:31:29;;;;;;;20.90;13.10;;;;;;;-0.98;75.19;97005.98;110124;1244;71239;-68
2023/03/14 05:34:31;;;;;;;24.80;14.50;;;;;;;-0.78;75.71;97005.45;109737;1244;69586;-68
2023/03/14 05:37:22;;;;;;;20.80;13.80;;;;;;;-0.61;77.01;97010.70;110005;1244;68684;-68
2023/03/14 05:40:06;;;;;;;29.60;19.20;;;;;;;-0.41;76.84;97008.27;109970;1244;58877;-70
2023/03/14 05:42:42;;;;;;;20.10;12.80;;;;;;;-0.14;75.63;97001.51;109847;1245;58859;-68
2023/03/14 05:45:30;;;;;;;19.90;13.00;;;;;;;0.23;73.82;97000.62;110128;1244;71047;-68
2023/03/14 05:48:29;;;;;;;16.80;12.80;;;;;;;0.61;72.03;97002.73;110070;1244;69713;-68
2023/03/14 05:51:10;;;;;;;17.50;12.10;;;;;;;0.89;70.75;97000.58;109975;1244;68856;-68
2023/03/14 05:53:50;;;;;;;16.80;10.50;;;;;;;1.20;69.71;97001.03;110098;1244;58843;-68
2023/03/14 05:56:43;;;;;;;17.70;11.90;;;;;;;1.71;70.91;96993.16;110016;1244;59332;-69
2023/03/14 05:59:32;;;;;;;20.70;15.40;;;;;;;2.16;66.84;96986.65;109694;1244;70068;-68
2023/03/14 06:02:15;;;;;;;39.80;28.70;;;;;;;2.57;67.44;96986.31;110019;1243;69401;-68
2023/03/14 06:04:50;;;;;;;47.40;32.60;;;;;;;2.87;63.56;96986.91;109948;1244;69500;-68
2023/03/14 06:07:19;;;;;;;29.90;22.10;;;;;;;3.13;63.40;96986.66;109821;1246;59022;-68
2023/03/14 06:09:49;;;;;;;;;;;;;;;3.41;62.22;96983.00;109968;1244;58900;-69
2023/03/14 06:12:19;;;;;;;23.90;17.10;;;;;;;3.79;60.32;96981.23;110095;1244;71169;-69
2023/03/14 06:14:48;;;;;;;21.00;17.00;;;;;;;4.10;60.02;96977.01;109942;1246;70630;-68
2023/03/14 06:17:17;;;;;;;17.80;13.40;;;;;;;4.34;58.12;96973.98;110059;1244;69844;-69
2023/03/14 06:19:51;;;;;;;18.00;14.20;;;;;;;4.66;57.64;96973.02;110106;1244;58946;-68
2023/03/14 06:22:21;;;;;;;18.30;14.00;;;;;;;5.01;57.68;96970.89;110002;1243;58891;-68
2023/03/14 06:24:50;;;;;;;26.10;21.70;;;;;;;5.37;56.52;96968.64;109880;1243;71172;-68
2023/03/14 06:27:19;;;;;;;24.20;20.90;;;;;;;5.63;55.42;96960.15;109793;1245;69498;-67
2023/03/14 06:29:48;;;;;;;22.70;19.40;;;;;;;5.91;54.02;96955.56;109749;1244;69492;-67
2023/03/14 06:32:18;;;;;;;24.80;19.20;;;;;;;6.28;56.37;96951.34;109997;1244;58867;-67
2023/03/14 06:34:48;;;;;;;26.00;18.60;;;;;;;6.47;52.89;96946.90;109920;1245;58914;-67
2023/03/14 06:37:17;;;;;;;24.60;18.00;;;;;;;6.69;52.51;96950.64;109891;1245;71159;-69
2023/03/14 06:39:48;;;;;;;26.50;19.80;;;;;;;6.73;50.32;96953.02;110002;1244;70152;-69
2023/03/14 06:42:24;;;;;;;26.20;19.60;;;;;;;6.79;50.32;96952.06;110040;1244;69277;-67
2023/03/14 06:44:53;;;;;;;24.70;18.80;;;;;;;6.80;50.41;96943.73;109900;1245;58959;-68
2023/03/14 06:47:22;;;;;;;22.70;17.50;;;;;;;7.01;50.61;96948.21;109893;1246;58905;-68
2023/03/14 06:49:51;;;;;;;20.50;15.30;;;;;;;7.13;48.64;96942.73;110066;1244;71170;-68
2023/03/14 06:52:21;;;;;;;23.20;16.90;;;;;;;7.37;48.63;96934.23;110064;1244;68485;-68
2023/03/14 06:54:50;;;;;;;21.60;15.90;;;;;;;7.81;49.23;96926.33;109897;1246;69212;-68
2023/03/14 06:57:21;;;;;;;22.20;15.40;;;;;;;8.29;50.67;96919.84;110051;1245;58888;-68
2023/03/14 06:59:50;;;;;;;21.10;14.60;;;;;;;8.54;47.33;96915.70;109921;1243;58881;-68
2023/03/14 07:02:19;;;;;;;27.10;20.20;;;;;;;8.80;47.41;96911.71;110052;1244;71156;-68
2023/03/14 07:05:01;;;;;;;18.90;13.80;;;;;;;8.75;46.33;96909.10;110055;1244;69261;-68
2023/03/14 07:07:30;;;;;;;20.60;14.10;;;;;;;9.05;44.97;96911.39;109847;1245;69620;-68
2023/03/14 07:09:59;;;;;;;19.60;13.70;;;;;;;9.13;45.62;96912.00;109845;1245;58925;-68
2023/03/14 07:12:29;;;;;;;14.10;10.20;;;;;;;9.45;44.53;96907.20;109960;1244;58895;-68
2023/03/14 07:14:58;;;;;;;14.70;11.40;;;;;;;9.52;42.88;96902.77;110059;1245;70561;-68
2023/03/14 07:17:43;;;;;;;15.70;11.60;;;;;;;9.94;44.67;96896.80;110004;1242;69647;-67
2023/03/14 07:20:12;;;;;;;14.80;12.40;;;;;;;10.16;43.91;96895.21;110022;1244;68757;-69
2023/03/14 07:22:41;;;;;;;12.60;9.60;;;;;;;9.75;42.51;96893.71;109969;1244;58879;-69
2023/03/14 07:25:11;;;;;;;;;;;;;;;9.55;42.62;96895.80;109870;1245;58843;-70
2023/03/14 07:27:44;;;;;;;12.10;10.40;;;;;;;9.48;43.81;96890.39;109879;1244;71023;-71
2023/03/14 07:30:14;;;;;;;12.40;9.70;;;;;;;9.65;43.64;96888.52;109858;1246;69705;-70
2023/03/14 07:32:43;;;;;;;9.30;8.00;;;;;;;9.86;42.59;96884.37;109916;1248;69062;-70
2023/03/14 07:35:12;;;;;;;10.90;8.20;;;;;;;9.99;42.45;96880.70;110055;1244;59295;-71
2023/03/14 07:37:42;;;;;;;9.30;7.60;;;;;;;10.27;41.75;96878.90;110019;1244;58957;-70
2023/03/14 07:40:14;;;;;;;11.70;7.00;;;;;;;10.18;41.23;96876.59;109984;1244;71004;-70
2023/03/14 07:42:44;;;;;;;9.70;6.90;;;;;;;10.31;40.26;96872.09;109805;1245;69045;-70
2023/03/14 07:45:18;;;;;;;9.60;6.90;;;;;;;10.45;39.58;96871.48;110127;1244;69616;-70
2023/03/14 07:47:47;;;;;;;10.50;6.90;;;;;;;10.37;39.85;96865.84;110083;1244;58947;-71
2023/03/14 07:50:16;;;;;;;8.40;6.20;;;;;;;10.49;39.81;96856.02;110040;1244;58946;-70
2023/03/14 07:52:45;;;;;;;8.50;6.00;;;;;;;10.82;39.36;96857.16;110111;1244;70535;-69
2023/03/14 07:55:14;;;;;;;9.40;7.20;;;;;;;11.11;39.05;96848.77;110031;1244;70111;-69
2023/03/14 07:57:43;;;;;;;8.20;6.50;;;;;;;11.42;39.15;96847.39;110023;1244;69133;-70
2023/03/14 08:00:16;;;;;;;9.10;6.00;;;;;;;11.86;37.90;96841.71;110023;1242;58936;-70
2023/03/14 08:02:45;;;;;;;9.40;5.90;;;;;;;12.14;37.64;96838.91;110012;1243;58925;-71
2023/03/14 08:05:15;;;;;;;8.60;6.00;;;;;;;12.89;36.94;96838.30;110108;1244;71187;-70
2023/03/14 08:07:44;;;;;;;7.60;5.90;;;;;;;13.26;35.85;96835.30;110025;1243;69823;-70
2023/03/14 08:10:20;;;;;;;8.80;6.20;;;;;;;13.56;35.49;96831.63;109975;1245;69648;-70
2023/03/14 08:12:55;;;;;;;8.60;6.80;;;;;;;13.89;35.37;96828.48;110025;1244;58875;-70
2023/03/14 08:15:25;;;;;;;8.20;5.60;;;;;;;14.29;33.86;96824.44;110053;1243;58941;-70
2023/03/14 08:17:54;;;;;;;7.20;5.50;;;;;;;14.59;33.16;96820.19;109981;1244;70437;-70
2023/03/14 08:20:26;;;;;;;8.60;5.40;;;;;;;15.00;34.30;96815.35;109741;1243;68603;-70
2023/03/14 08:23:00;;;;;;;6.70;5.00;;;;;;;15.79;34.05;96814.02;109987;1244;69299;-70
2023/03/14 08:25:30;;;;;;;6.60;5.00;;;;;;;16.27;30.65;96812.57;109906;1245;58935;-70
2023/03/14 08:28:01;;;;;;;6.00;4.60;;;;;;;16.15;30.14;96807.09;109877;1246;58931;-70
2023/03/14 08:30:30;;;;;;;6.90;4.90;;;;;;;16.37;30.29;96810.45;109999;1244;71095;-70
2023/03/14 08:32:59;;;;;;;6.60;4.50;;;;;;;17.23;30.50;96803.45;110038;1243;69422;-70
2023/03/14 08:35:29;;;;;;;5.90;4.00;;;;;;;17.76;28.67;96796.59;110095;1244;70172;-71
2023/03/14 08:37:59;;;;;;;6.20;4.20;;;;;;;18.26;27.86;96795.99;110056;1245;58907;-70
2023/03/14 08:40:28;;;;;;;4.60;4.00;;;;;;;18.50;27.58;96789.80;110019;1245;58889;-70
2023/03/14 08:42:57;;;;;;;5.10;3.70;;;;;;;18.49;27.12;96786.23;110121;1243;70618;-68
2023/03/14 08:45:26;;;;;;;5.70;4.00;;;;;;;18.49;27.47;96782.95;109960;1244;69816;-70
2023/03/14 08:47:57;;;;;;;4.70;3.50;;;;;;;18.30;26.85;96781.45;109976;1245;68516;-70
2023/03/14 08:50:26;;;;;;;5.30;3.50;;;;;;;17.91;26.70;96779.91;110023;1244;58941;-70
2023/03/14 08:52:57;;;;;;;5.70;4.20;;;;;;;17.71;27.01;96780.35;109895;1245;58888;-70
2023/03/14 08:55:27;;;;;;;10.10;4.30;;;;;;;17.88;27.10;96782.39;109983;1242;71132;-70
2023/03/14 08:57:55;;;;;;;;;;;;;;;18.00;27.28;96775.21;110009;1244;69683;-70
2023/03/14 09:00:24;;;;;;;4.40;3.80;;;;;;;18.39;26.81;96778.49;109955;1245;69301;-70
2023/03/14 09:02:53;;;;;;;4.70;3.20;;;;;;;18.90;27.44;96773.30;109999;1244;58905;-70
2023/03/14 09:05:23;;;;;;;3.80;3.20;;;;;;;19.27;26.06;96768.03;110109;1244;58901;-70
2023/03/14 09:07:52;;;;;;;4.30;3.30;;;;;;;19.70;25.88;96764.92;110036;1244;71411;-70
2023/03/14 09:10:21;;;;;;;4.90;3.40;;;;;;;19.75;24.97;96763.08;110030;1245;68912;-70
2023/03/14 09:12:51;;;;;;;5.10;3.70;;;;;;;20.22;25.02;96761.64;110017;1245;69921;-70
2023/03/14 09:15:20;;;;;;;4.60;3.70;;;;;;;20.71;25.01;96754.21;110032;1251;58937;-71
2023/03/14 09:17:49;;;;;;;4.00;3.30;;;;;;;20.94;24.16;96749.19;110079;1244;58954;-70
2023/03/14 09:20:18;;;;;;;4.00;3.40;;;;;;;21.21;24.00;96742.39;109998;1242;70352;-70
2023/03/14 09:22:47;;;;;;;5.90;3.30;;;;;;;21.59;23.52;96739.61;110057;1245;69171;-70
2023/03/14 09:25:16;;;;;;;4.40;2.80;;;;;;;21.85;22.98;96738.84;110072;1244;69208;-70
2023/03/14 09:27:46;;;;;;;4.30;3.30;;;;;;;21.99;23.35;96737.90;110129;1244;59771;-70
2023/03/14 09:30:15;;;;;;;3.80;3.10;;;;;;;21.93;23.04;96738.48;110116;1244;58847;-70
2023/03/14 09:32:44;;;;;;;4.20;3.10;;;;;;;21.40;22.99;96729.48;110117;1244;70420;-70
2023/03/14 09:35:13;;;;;;;5.90;3.70;;;;;;;20.97;23.52;96723.58;110121;1243;69432;-69
2023/03/14 09:37:42;;;;;;;5.50;4.50;;;;;;;20.91;23.77;96714.77;110110;1244;69179;-69
2023/03/14 09:40:20;;;;;;;4.10;3.30;;;;;;;20.24;25.09;96715.07;110067;1244;58901;-70
2023/03/14 09:42:51;;;;;;;5.50;3.50;;;;;;;20.52;24.78;96710.91;110029;1245;58895;-70
2023/03/14 09:45:34;;;;;;;3.60;2.70;;;;;;;20.53;24.04;96715.16;110126;1245;71134;-70
2023/03/14 09:48:04;;;;;;;4.30;3.10;;;;;;;20.92;24.21;96712.23;110130;1242;68278;-70
2023/03/14 09:50:41;;;;;;;4.90;3.50;;;;;;;21.78;23.82;96713.30;110126;1244;69191;-70
2023/03/14 09:53:18;;;;;;;3.00;2.70;;;;;;;21.97;23.45;96706.01;110127;1244;58906;-70
2023/03/14 09:55:50;;;;;;;4.70;3.60;;;;;;;22.55;23.29;96699.48;110130;1244;58824;-70
2023/03/14 09:58:22;;;;;;;4.30;3.30;;;;;;;22.45;23.00;96696.80;109977;1243;70387;-70
2023/03/14 10:00:55;;;;;;;4.20;3.00;;;;;;;22.36;22.78;96692.20;110071;1244;70121;-70
2023/03/14 10:03:32;;;;;;;5.10;3.20;;;;;;;22.17;23.57;96688.42;110081;1243;69865;-70
2023/03/14 10:06:09;;;;;;;4.90;3.50;;;;;;;21.85;23.27;96684.04;110070;1245;58947;-69
2023/03/14 10:08:45;;;;;;;3.90;2.90;;;;;;;21.89;24.19;96684.61;110089;1244;58968;-70
2023/03/14 10:11:18;;;;;;;4.10;3.20;;;;;;;22.00;23.69;96681.90;110112;1244;70179;-70
2023/03/14 10:14:08;;;;;;;4.30;3.10;;;;;;;22.05;23.29;96679.42;110072;1243;67475;-70
2023/03/14 10:16:45;;;;;;;3.60;3.00;;;;;;;22.21;22.55;96669.30;110136;1244;69716;-70
2023/03/14 10:31:26;;;;;;;5.30;3.50;;;;;;;22.93;21.87;96646.22;107227;1273;609833;-72
2023/03/14 10:34:03;;;;;;;4.40;3.40;;;;;;;22.11;22.50;96637.73;108859;1253;235167;-70
2023/03/14 10:36:34;;;;;;;4.30;3.00;;;;;;;21.64;22.61;96633.63;110045;1244;57744;-70
2023/03/14 10:39:34;;;;;;;4.00;3.10;;;;;;;21.21;23.11;96627.08;110129;1244;68821;-71
2023/03/14 10:42:14;;;;;;;4.10;2.70;;;;;;;20.85;23.28;96614.11;110101;1245;69717;-70
2023/03/14 10:44:44;;;;;;;3.80;3.30;;;;;;;21.25;23.62;96611.34;110100;1244;69675;-70
2023/03/14 10:47:23;;;;;;;4.30;3.00;;;;;;;22.04;23.44;96605.15;110027;1244;57721;-70
2023/03/14 10:49:52;;;;;;;;;;;;;;;23.09;21.82;96600.71;110069;1244;57706;-71
2023/03/14 10:52:27;;;;;;;4.50;2.60;;;;;;;23.74;21.02;96593.52;110096;1244;68787;-70
2023/03/14 10:55:16;;;;;;;3.70;2.60;;;;;;;24.15;20.29;96589.04;110185;1244;69892;-71
2023/03/14 10:57:45;;;;;;;3.80;2.80;;;;;;;24.03;19.50;96583.83;110178;1244;69702;-70
2023/03/14 11:00:22;;;;;;;2.90;2.30;;;;;;;23.63;19.63;96583.39;109955;1244;58126;-69
2023/03/14 11:03:09;;;;;;;3.40;2.50;;;;;;;23.46;19.78;96572.93;110059;1244;58520;-70
2023/03/14 11:05:58;;;;;;;3.80;2.50;;;;;;;24.06;19.88;96570.53;109967;1246;68853;-70
2023/03/14 11:08:54;;;;;;;5.30;2.50;;;;;;;24.28;19.06;96562.02;110089;1245;69670;-71
2023/03/14 11:11:28;;;;;;;3.70;2.50;;;;;;;23.82;19.22;96553.81;110099;1244;69677;-71
2023/03/14 11:14:17;;;;;;;4.30;2.60;;;;;;;23.17;19.47;96548.64;110148;1244;58144;-71
2023/03/14 11:17:01;;;;;;;4.60;2.80;;;;;;;22.20;20.32;96539.28;110093;1245;58054;-70
2023/03/14 11:20:25;;;;;;;4.20;2.80;;;;;;;21.43;21.09;96542.50;109963;1245;69796;-70
2023/03/14 11:23:07;;;;;;;3.60;2.40;;;;;;;21.25;21.30;96532.14;109428;1249;69147;-71
2023/03/14 11:25:50;;;;;;;4.60;3.10;;;;;;;21.16;21.50;96522.52;109429;1250;69720;-70
2023/03/14 11:28:42;;;;;;;4.80;2.90;;;;;;;20.85;22.12;96514.06;109839;1245;58073;-70
2023/03/14 11:31:20;;;;;;;4.60;3.50;;;;;;;20.55;22.52;96509.11;110025;1244;58092;-70
2023/03/14 11:34:11;;;;;;;4.70;3.20;;;;;;;20.33;22.89;96504.23;110071;1245;70238;-71
2023/03/14 11:36:55;;;;;;;6.20;2.70;;;;;;;20.26;22.86;96499.67;110062;1244;69222;-70
2023/03/14 11:39:29;;;;;;;5.50;2.80;;;;;;;20.50;22.84;96493.84;109897;1244;69717;-71
2023/03/14 11:41:59;;;;;;;4.80;2.80;;;;;;;20.63;22.76;96494.56;109929;1244;58081;-70
2023/03/14 11:44:37;;;;;;;4.60;2.70;;;;;;;20.67;22.40;96486.36;110037;1244;58082;-70
2023/03/14 11:47:27;;;;;;;3.90;2.50;;;;;;;20.57;22.28;96483.17;110000;1245;69555;-70
2023/03/14 11:50:19;;;;;;;4.30;2.60;;;;;;;20.73;22.63;96472.66;110107;1243;69681;-70
2023/03/14 11:52:47;;;;;;;4.40;2.70;;;;;;;20.82;22.50;96466.13;110077;1244;69814;-69
2023/03/14 11:55:28;;;;;;;4.20;2.70;;;;;;;20.84;22.62;96459.35;109913;1244;58078;-71
2023/03/14 11:58:03;;;;;;;5.30;3.00;;;;;;;20.64;21.78;96454.70;109936;1244;58103;-72
2023/03/14 12:00:33;;;;;;;4.80;3.10;;;;;;;20.24;21.75;96447.69;110043;1244;68854;-71
2023/03/14 12:03:04;;;;;;;;;;;;;;;20.01;22.21;96441.75;110081;1244;68577;-71
2023/03/14 12:05:59;;;;;;;5.20;2.90;;;;;;;20.08;22.57;96434.89;110209;1243;68460;-69
2023/03/14 12:08:50;;;;;;;5.50;2.80;;;;;;;20.52;23.01;96426.20;110016;1244;58141;-71
2023/03/14 12:11:59;;;;;;;4.00;2.70;;;;;;;21.33;22.14;96417.65;110117;1244;58064;-70